createdAt,value
2023-05-14T00:08:04.903Z,8.10
2023-05-14T00:18:08.421Z,8.10
2023-05-14T00:28:11.550Z,6.90
2023-05-14T00:38:19.500Z,6.50
2023-05-14T00:48:23.605Z,7.10
2023-05-14T00:58:27.174Z,6.70
2023-05-14T01:08:42.435Z,8.40
2023-05-14T01:19:42.250Z,7.50
2023-05-14T01:30:23.442Z,7.00
2023-05-14T01:40:27.278Z,6.90
2023-05-14T01:50:30.693Z,6.50
2023-05-14T02:00:33.823Z,6.70
2023-05-14T02:10:37.002Z,7.10
2023-05-14T02:20:40.081Z,6.90
2023-05-14T02:30:43.080Z,6.50
2023-05-14T02:40:46.356Z,6.70
2023-05-14T02:50:52.499Z,6.30
2023-05-14T03:00:55.835Z,5.90
2023-05-14T03:10:59.725Z,7.20
2023-05-14T03:21:04.081Z,7.10
2023-05-14T03:31:07.256Z,5.90
2023-05-14T03:41:10.552Z,6.30
2023-05-14T03:51:13.621Z,6.90
2023-05-14T04:01:16.831Z,7.90
2023-05-14T04:11:19.930Z,8.40
2023-05-14T04:21:23.000Z,7.20
2023-05-14T04:31:26.174Z,7.60
2023-05-14T04:41:29.249Z,8.20
2023-05-14T04:51:32.712Z,7.60
2023-05-14T05:01:35.846Z,7.00
2023-05-14T05:11:39.377Z,6.60
2023-05-14T05:21:42.590Z,5.30
2023-05-14T05:31:45.654Z,5.20
2023-05-14T05:41:48.925Z,4.50
2023-05-14T05:51:52.302Z,3.90
2023-05-14T06:01:55.687Z,3.90
2023-05-14T06:11:59.046Z,2.70
2023-05-14T06:22:02.950Z,3.30
2023-05-14T06:32:06.541Z,3.30
2023-05-14T06:42:09.804Z,2.80
2023-05-14T06:52:12.876Z,2.60
2023-05-14T07:02:16.014Z,2.50
2023-05-14T07:12:25.065Z,2.30
2023-05-14T07:22:30.316Z,2.70
2023-05-14T07:32:36.161Z,1.60
2023-05-14T07:42:43.877Z,1.20
2023-05-14T07:52:47.961Z,1.40
2023-05-14T08:02:52.068Z,0.90
2023-05-14T08:12:55.609Z,1.00
2023-05-14T08:22:58.825Z,1.00
2023-05-14T08:33:01.876Z,0.90
2023-05-14T08:43:06.549Z,1.10
2023-05-14T08:53:09.702Z,1.10
2023-05-14T09:03:13.456Z,1.10
2023-05-14T09:13:16.643Z,1.00
2023-05-14T09:23:19.759Z,1.10
2023-05-14T09:33:29.652Z,1.20
2023-05-14T09:43:32.704Z,1.00
2023-05-14T09:53:35.943Z,0.90
2023-05-14T10:03:39.486Z,1.10
2023-05-14T10:13:47.704Z,1.20
2023-05-14T10:23:51.354Z,1.10
2023-05-14T10:33:55.212Z,1.40
2023-05-14T10:43:59.364Z,0.80
2023-05-14T10:54:02.510Z,1.30
2023-05-14T11:04:06.098Z,1.20
2023-05-14T11:14:10.596Z,1.40
2023-05-14T11:24:13.795Z,1.00
2023-05-14T11:34:17.124Z,1.20
2023-05-14T11:44:20.642Z,1.30
2023-05-14T11:54:26.163Z,1.10
2023-05-14T12:04:31.230Z,1.00
2023-05-14T12:14:38.440Z,1.40
2023-05-14T12:24:43.045Z,1.10
2023-05-14T12:34:46.415Z,1.00
2023-05-14T12:44:49.891Z,1.30
2023-05-14T12:54:53.204Z,1.30
2023-05-14T13:04:56.593Z,1.40
2023-05-14T13:14:59.784Z,1.30
2023-05-14T13:25:03.689Z,1.00
2023-05-14T13:35:07.954Z,1.70
2023-05-14T13:45:11.889Z,1.30
2023-05-14T13:55:15.185Z,1.20
2023-05-14T14:05:18.397Z,1.70
2023-05-14T14:15:21.989Z,1.80
2023-05-14T14:25:25.505Z,1.20
2023-05-14T14:35:28.884Z,2.40
2023-05-14T14:45:32.203Z,1.30
2023-05-14T14:55:35.337Z,1.40
2023-05-14T15:05:38.445Z,1.30
2023-05-14T15:15:41.541Z,1.20
2023-05-14T15:25:44.942Z,1.10
2023-05-14T15:35:48.120Z,1.40
2023-05-14T15:45:51.455Z,1.40
2023-05-14T15:55:55.408Z,1.90
2023-05-14T16:06:23.633Z,1.30
2023-05-14T16:16:27.209Z,1.50
2023-05-14T16:26:30.814Z,1.60
2023-05-14T16:36:34.461Z,2.60
2023-05-14T16:46:37.877Z,3.10
2023-05-14T16:56:48.181Z,2.70
2023-05-14T17:06:53.218Z,1.00
2023-05-14T17:16:57.143Z,1.10
2023-05-14T17:27:00.359Z,1.10
2023-05-14T17:37:03.561Z,1.60
2023-05-14T17:47:08.401Z,2.20
2023-05-14T17:57:11.595Z,2.20
2023-05-14T18:07:14.798Z,2.50
2023-05-14T18:17:18.089Z,3.10
2023-05-14T18:27:21.295Z,1.20
2023-05-14T18:37:26.988Z,2.00
2023-05-14T18:47:35.130Z,1.40
2023-05-14T18:57:38.458Z,1.30
2023-05-14T19:07:41.950Z,1.50
2023-05-14T19:17:45.386Z,1.20
2023-05-14T19:28:13.949Z,2.30
2023-05-14T19:38:21.073Z,1.90
2023-05-14T19:48:49.627Z,2.20
2023-05-14T20:11:33.303Z,1.50
2023-05-14T20:21:36.511Z,2.10
2023-05-14T20:32:05.035Z,5.10
2023-05-14T20:42:08.151Z,2.40
2023-05-14T20:52:11.343Z,1.70
2023-05-14T21:02:14.948Z,1.60
2023-05-14T21:12:19.350Z,1.40
2023-05-14T21:22:22.563Z,1.60
2023-05-14T21:32:25.828Z,1.50
2023-05-14T21:42:53.735Z,2.10
2023-05-14T21:52:57.046Z,2.10
2023-05-14T22:03:00.292Z,2.10
2023-05-14T22:13:03.346Z,2.00
2023-05-14T22:23:06.369Z,2.60
2023-05-14T22:33:09.650Z,1.80
2023-05-14T22:43:12.897Z,2.10
2023-05-14T22:53:15.965Z,1.40
2023-05-14T23:03:19.170Z,1.50
2023-05-14T23:13:48.087Z,1.80
2023-05-14T23:23:51.228Z,2.30
2023-05-14T23:33:54.429Z,2.60
2023-05-14T23:43:57.447Z,2.00
2023-05-14T23:54:00.518Z,2.30
